sensor_id;sensor_type;location;lat;lon;timestamp;temperature;humidity
39503;DHT22;26970;49.900;10.774;2023-02-15T00:01:27;0.70;99.90
39503;DHT22;26970;49.900;10.774;2023-02-15T00:03:53;0.90;99.90
39503;DHT22;26970;49.900;10.774;2023-02-15T00:06:19;0.70;99.90
39503;DHT22;26970;49.900;10.774;2023-02-15T00:08:44;0.70;99.90
39503;DHT22;26970;49.900;10.774;2023-02-15T00:11:14;0.60;99.90
39503;DHT22;26970;49.900;10.774;2023-02-15T00:13:40;0.60;99.90
39503;DHT22;26970;49.900;10.774;2023-02-15T00:16:10;0.60;99.90
39503;DHT22;26970;49.900;10.774;2023-02-15T00:18:39;0.50;99.90
39503;DHT22;26970;49.900;10.774;2023-02-15T00:21:09;0.50;99.90
39503;DHT22;26970;49.900;10.774;2023-02-15T00:23:36;0.50;99.90
39503;DHT22;26970;49.900;10.774;2023-02-15T00:26:10;0.50;99.90
39503;DHT22;26970;49.900;10.774;2023-02-15T00:28:36;0.60;99.90
39503;DHT22;26970;49.900;10.774;2023-02-15T00:31:06;0.60;99.90
39503;DHT22;26970;49.900;10.774;2023-02-15T00:33:32;0.50;99.90
39503;DHT22;26970;49.900;10.774;2023-02-15T00:35:59;0.60;99.90
39503;DHT22;26970;49.900;10.774;2023-02-15T00:38:26;0.70;99.90
39503;DHT22;26970;49.900;10.774;2023-02-15T00:40:53;0.80;99.90
39503;DHT22;26970;49.900;10.774;2023-02-15T00:43:19;0.70;99.90
39503;DHT22;26970;49.900;10.774;2023-02-15T00:45:45;0.50;99.90
39503;DHT22;26970;49.900;10.774;2023-02-15T00:48:11;0.40;99.90
39503;DHT22;26970;49.900;10.774;2023-02-15T00:50:37;0.30;99.90
39503;DHT22;26970;49.900;10.774;2023-02-15T00:53:02;0.30;99.90
39503;DHT22;26970;49.900;10.774;2023-02-15T00:55:28;0.20;99.90
39503;DHT22;26970;49.900;10.774;2023-02-15T00:57:53;0.10;99.90
39503;DHT22;26970;49.900;10.774;2023-02-15T01:00:19;0.10;99.90
39503;DHT22;26970;49.900;10.774;2023-02-15T01:02:45;0.20;99.90
39503;DHT22;26970;49.900;10.774;2023-02-15T01:05:10;0.30;99.90
39503;DHT22;26970;49.900;10.774;2023-02-15T01:07:36;0.20;99.90
39503;DHT22;26970;49.900;10.774;2023-02-15T01:10:02;0.30;99.90
39503;DHT22;26970;49.900;10.774;2023-02-15T01:12:27;0.50;99.90
39503;DHT22;26970;49.900;10.774;2023-02-15T01:14:53;0.50;99.90
39503;DHT22;26970;49.900;10.774;2023-02-15T01:17:18;0.40;99.90
39503;DHT22;26970;49.900;10.774;2023-02-15T01:19:44;0.60;99.90
39503;DHT22;26970;49.900;10.774;2023-02-15T01:22:09;0.80;99.90
39503;DHT22;26970;49.900;10.774;2023-02-15T01:24:35;0.60;99.90
39503;DHT22;26970;49.900;10.774;2023-02-15T01:27:01;0.50;99.90
39503;DHT22;26970;49.900;10.774;2023-02-15T01:29:26;0.40;99.90
39503;DHT22;26970;49.900;10.774;2023-02-15T01:31:52;0.30;99.90
39503;DHT22;26970;49.900;10.774;2023-02-15T01:34:17;0.40;99.90
39503;DHT22;26970;49.900;10.774;2023-02-15T01:36:43;0.40;99.90
39503;DHT22;26970;49.900;10.774;2023-02-15T01:39:08;0.20;99.90
39503;DHT22;26970;49.900;10.774;2023-02-15T01:41:35;0.30;99.90
39503;DHT22;26970;49.900;10.774;2023-02-15T01:44:02;0.60;99.90
39503;DHT22;26970;49.900;10.774;2023-02-15T01:49:04;0.50;99.90
39503;DHT22;26970;49.900;10.774;2023-02-15T01:51:33;0.40;99.90
39503;DHT22;26970;49.900;10.774;2023-02-15T01:56:39;0.40;99.90
39503;DHT22;26970;49.900;10.774;2023-02-15T01:59:10;0.20;99.90
39503;DHT22;26970;49.900;10.774;2023-02-15T02:01:37;0.10;99.90
39503;DHT22;26970;49.900;10.774;2023-02-15T02:04:11;0.00;99.90
39503;DHT22;26970;49.900;10.774;2023-02-15T02:06:39;-0.20;99.90
39503;DHT22;26970;49.900;10.774;2023-02-15T02:09:05;-0.30;99.90
39503;DHT22;26970;49.900;10.774;2023-02-15T02:11:31;0.70;99.90
39503;DHT22;26970;49.900;10.774;2023-02-15T02:13:57;-0.10;99.90
39503;DHT22;26970;49.900;10.774;2023-02-15T02:20:04;-0.10;99.90
39503;DHT22;26970;49.900;10.774;2023-02-15T02:27:50;0.10;99.90
39503;DHT22;26970;49.900;10.774;2023-02-15T02:36:31;0.10;99.90
39503;DHT22;26970;49.900;10.774;2023-02-15T02:41:49;0.00;99.90
39503;DHT22;26970;49.900;10.774;2023-02-15T02:44:24;0.10;99.90
39503;DHT22;26970;49.900;10.774;2023-02-15T02:47:09;-0.10;99.90
39503;DHT22;26970;49.900;10.774;2023-02-15T02:49:39;-0.10;99.90
39503;DHT22;26970;49.900;10.774;2023-02-15T02:52:33;-0.30;99.90
39503;DHT22;26970;49.900;10.774;2023-02-15T02:54:54;-0.40;99.90
39503;DHT22;26970;49.900;10.774;2023-02-15T02:57:22;-0.40;99.90
39503;DHT22;26970;49.900;10.774;2023-02-15T02:59:50;-0.40;99.90
39503;DHT22;26970;49.900;10.774;2023-02-15T03:02:21;-0.20;99.90
39503;DHT22;26970;49.900;10.774;2023-02-15T03:04:53;-0.30;99.90
39503;DHT22;26970;49.900;10.774;2023-02-15T03:07:25;0.10;99.90
39503;DHT22;26970;49.900;10.774;2023-02-15T03:09:55;0.10;99.90
39503;DHT22;26970;49.900;10.774;2023-02-15T03:12:35;0.00;99.90
39503;DHT22;26970;49.900;10.774;2023-02-15T03:15:10;-0.30;99.90
39503;DHT22;26970;49.900;10.774;2023-02-15T03:17:43;-0.20;99.90
39503;DHT22;26970;49.900;10.774;2023-02-15T03:20:29;-0.10;99.90
39503;DHT22;26970;49.900;10.774;2023-02-15T03:23:06;0.00;99.90
39503;DHT22;26970;49.900;10.774;2023-02-15T03:25:35;0.00;99.90
39503;DHT22;26970;49.900;10.774;2023-02-15T03:28:06;0.00;99.90
39503;DHT22;26970;49.900;10.774;2023-02-15T03:30:34;0.20;99.90
39503;DHT22;26970;49.900;10.774;2023-02-15T03:33:00;0.20;99.90
39503;DHT22;26970;49.900;10.774;2023-02-15T03:35:54;0.10;99.90
39503;DHT22;26970;49.900;10.774;2023-02-15T03:38:26;-0.10;99.90
39503;DHT22;26970;49.900;10.774;2023-02-15T03:40:53;0.10;99.90
39503;DHT22;26970;49.900;10.774;2023-02-15T03:46:29;0.10;99.90
39503;DHT22;26970;49.900;10.774;2023-02-15T03:49:06;0.00;99.90
39503;DHT22;26970;49.900;10.774;2023-02-15T03:51:38;-0.10;99.90
39503;DHT22;26970;49.900;10.774;2023-02-15T03:54:08;-0.10;99.90
39503;DHT22;26970;49.900;10.774;2023-02-15T03:56:37;0.00;99.90
39503;DHT22;26970;49.900;10.774;2023-02-15T03:59:04;0.20;99.90
39503;DHT22;26970;49.900;10.774;2023-02-15T04:01:58;0.10;99.90
39503;DHT22;26970;49.900;10.774;2023-02-15T04:04:39;-0.10;99.90
39503;DHT22;26970;49.900;10.774;2023-02-15T04:07:08;-0.20;99.90
39503;DHT22;26970;49.900;10.774;2023-02-15T04:09:34;0.00;99.90
39503;DHT22;26970;49.900;10.774;2023-02-15T04:12:19;0.10;99.90
39503;DHT22;26970;49.900;10.774;2023-02-15T04:14:44;0.00;99.90
39503;DHT22;26970;49.900;10.774;2023-02-15T04:17:29;-0.10;99.90
39503;DHT22;26970;49.900;10.774;2023-02-15T04:19:54;-0.20;99.90
39503;DHT22;26970;49.900;10.774;2023-02-15T04:22:39;-0.30;99.90
39503;DHT22;26970;49.900;10.774;2023-02-15T04:25:23;-0.10;99.90
39503;DHT22;26970;49.900;10.774;2023-02-15T04:27:51;0.00;99.90
39503;DHT22;26970;49.900;10.774;2023-02-15T04:30:20;0.00;99.90
39503;DHT22;26970;49.900;10.774;2023-02-15T04:32:46;-0.10;99.90
39503;DHT22;26970;49.900;10.774;2023-02-15T04:35:12;-0.20;99.90
39503;DHT22;26970;49.900;10.774;2023-02-15T04:37:39;-0.40;99.90
39503;DHT22;26970;49.900;10.774;2023-02-15T04:40:06;-0.30;99.90
39503;DHT22;26970;49.900;10.774;2023-02-15T04:42:32;-0.20;99.90
39503;DHT22;26970;49.900;10.774;2023-02-15T04:44:58;-0.10;99.90
39503;DHT22;26970;49.900;10.774;2023-02-15T04:47:24;-0.20;99.90
39503;DHT22;26970;49.900;10.774;2023-02-15T04:49:49;-0.20;99.90
39503;DHT22;26970;49.900;10.774;2023-02-15T04:52:15;-0.20;99.90
39503;DHT22;26970;49.900;10.774;2023-02-15T04:54:43;-0.40;99.90
39503;DHT22;26970;49.900;10.774;2023-02-15T04:57:09;-0.40;99.90
39503;DHT22;26970;49.900;10.774;2023-02-15T04:59:34;-0.30;99.90
39503;DHT22;26970;49.900;10.774;2023-02-15T05:02:00;-0.30;99.90
39503;DHT22;26970;49.900;10.774;2023-02-15T05:04:25;-0.30;99.90
39503;DHT22;26970;49.900;10.774;2023-02-15T05:06:51;-0.20;99.90
39503;DHT22;26970;49.900;10.774;2023-02-15T05:09:17;-0.30;99.90
39503;DHT22;26970;49.900;10.774;2023-02-15T05:11:42;-0.20;99.90
39503;DHT22;26970;49.900;10.774;2023-02-15T05:14:08;-0.30;99.90
39503;DHT22;26970;49.900;10.774;2023-02-15T05:16:34;-0.30;99.90
39503;DHT22;26970;49.900;10.774;2023-02-15T05:19:00;-0.20;99.90
39503;DHT22;26970;49.900;10.774;2023-02-15T05:21:26;-0.20;99.90
39503;DHT22;26970;49.900;10.774;2023-02-15T05:23:51;-0.30;99.90
39503;DHT22;26970;49.900;10.774;2023-02-15T05:26:22;-0.40;99.90
39503;DHT22;26970;49.900;10.774;2023-02-15T05:29:07;-0.40;99.90
39503;DHT22;26970;49.900;10.774;2023-02-15T05:31:34;-0.50;99.90
39503;DHT22;26970;49.900;10.774;2023-02-15T05:34:00;-0.50;99.90
39503;DHT22;26970;49.900;10.774;2023-02-15T05:36:26;-0.50;99.90
39503;DHT22;26970;49.900;10.774;2023-02-15T05:38:53;-0.70;99.90
39503;DHT22;26970;49.900;10.774;2023-02-15T05:41:19;-0.80;99.90
39503;DHT22;26970;49.900;10.774;2023-02-15T05:43:44;-0.90;99.90
39503;DHT22;26970;49.900;10.774;2023-02-15T05:46:10;-0.90;99.90
39503;DHT22;26970;49.900;10.774;2023-02-15T05:48:35;-0.90;99.90
39503;DHT22;26970;49.900;10.774;2023-02-15T05:51:02;-0.90;99.90
39503;DHT22;26970;49.900;10.774;2023-02-15T05:53:29;-1.00;99.90
39503;DHT22;26970;49.900;10.774;2023-02-15T05:55:56;-0.90;99.90
39503;DHT22;26970;49.900;10.774;2023-02-15T05:58:29;-1.00;99.90
39503;DHT22;26970;49.900;10.774;2023-02-15T06:00:55;-1.10;99.90
39503;DHT22;26970;49.900;10.774;2023-02-15T06:03:22;-1.10;99.90
39503;DHT22;26970;49.900;10.774;2023-02-15T06:05:48;-1.00;99.90
39503;DHT22;26970;49.900;10.774;2023-02-15T06:08:14;-0.70;99.90
39503;DHT22;26970;49.900;10.774;2023-02-15T06:10:40;-0.60;99.90
39503;DHT22;26970;49.900;10.774;2023-02-15T06:13:06;-0.70;99.90
39503;DHT22;26970;49.900;10.774;2023-02-15T06:15:32;-0.80;99.90
39503;DHT22;26970;49.900;10.774;2023-02-15T06:17:58;-0.60;99.90
39503;DHT22;26970;49.900;10.774;2023-02-15T06:20:23;-0.90;99.90
39503;DHT22;26970;49.900;10.774;2023-02-15T06:22:49;-0.80;99.90
39503;DHT22;26970;49.900;10.774;2023-02-15T06:25:14;-0.70;99.90
39503;DHT22;26970;49.900;10.774;2023-02-15T06:27:43;-0.70;99.90
39503;DHT22;26970;49.900;10.774;2023-02-15T06:30:10;-0.80;99.90
39503;DHT22;26970;49.900;10.774;2023-02-15T06:32:36;-0.80;99.90
39503;DHT22;26970;49.900;10.774;2023-02-15T06:35:01;-0.70;99.90
39503;DHT22;26970;49.900;10.774;2023-02-15T06:37:27;-0.60;99.90
39503;DHT22;26970;49.900;10.774;2023-02-15T06:39:53;-0.70;99.90
39503;DHT22;26970;49.900;10.774;2023-02-15T06:42:18;-0.60;99.90
39503;DHT22;26970;49.900;10.774;2023-02-15T06:44:44;-0.60;99.90
39503;DHT22;26970;49.900;10.774;2023-02-15T06:47:10;-0.70;99.90
39503;DHT22;26970;49.900;10.774;2023-02-15T06:49:36;-0.80;99.90
39503;DHT22;26970;49.900;10.774;2023-02-15T06:52:03;-0.80;99.90
39503;DHT22;26970;49.900;10.774;2023-02-15T06:54:29;-0.80;99.90
39503;DHT22;26970;49.900;10.774;2023-02-15T06:56:54;-0.90;99.90
39503;DHT22;26970;49.900;10.774;2023-02-15T06:59:20;-0.90;99.90
39503;DHT22;26970;49.900;10.774;2023-02-15T07:01:46;-0.90;99.90
39503;DHT22;26970;49.900;10.774;2023-02-15T07:04:11;-0.90;99.90
39503;DHT22;26970;49.900;10.774;2023-02-15T07:06:37;-0.90;99.90
39503;DHT22;26970;49.900;10.774;2023-02-15T07:09:03;-1.00;99.90
39503;DHT22;26970;49.900;10.774;2023-02-15T07:11:29;-1.10;99.90
39503;DHT22;26970;49.900;10.774;2023-02-15T07:14:13;-1.10;99.90
39503;DHT22;26970;49.900;10.774;2023-02-15T07:16:39;-1.10;99.90
39503;DHT22;26970;49.900;10.774;2023-02-15T07:19:04;-1.10;99.90
39503;DHT22;26970;49.900;10.774;2023-02-15T07:21:30;-1.00;99.90
39503;DHT22;26970;49.900;10.774;2023-02-15T07:23:57;-1.00;99.90
39503;DHT22;26970;49.900;10.774;2023-02-15T07:26:23;-1.00;99.90
39503;DHT22;26970;49.900;10.774;2023-02-15T07:28:48;-0.90;99.90
39503;DHT22;26970;49.900;10.774;2023-02-15T07:31:14;-0.80;99.90
39503;DHT22;26970;49.900;10.774;2023-02-15T07:33:40;-0.80;99.90
39503;DHT22;26970;49.900;10.774;2023-02-15T07:36:06;-0.80;99.90
39503;DHT22;26970;49.900;10.774;2023-02-15T07:38:34;-0.80;99.90
39503;DHT22;26970;49.900;10.774;2023-02-15T07:41:01;-0.90;99.90
39503;DHT22;26970;49.900;10.774;2023-02-15T07:43:28;-0.70;99.90
39503;DHT22;26970;49.900;10.774;2023-02-15T07:45:58;-0.60;99.90
39503;DHT22;26970;49.900;10.774;2023-02-15T07:48:23;-0.50;99.90
39503;DHT22;26970;49.900;10.774;2023-02-15T07:50:49;-0.50;99.90
39503;DHT22;26970;49.900;10.774;2023-02-15T07:53:14;-0.40;99.90
39503;DHT22;26970;49.900;10.774;2023-02-15T07:55:40;-0.60;99.90
39503;DHT22;26970;49.900;10.774;2023-02-15T07:58:06;-0.70;99.90
39503;DHT22;26970;49.900;10.774;2023-02-15T08:00:31;-0.80;99.90
39503;DHT22;26970;49.900;10.774;2023-02-15T08:03:17;-0.90;99.90
39503;DHT22;26970;49.900;10.774;2023-02-15T08:05:44;-0.90;99.90
39503;DHT22;26970;49.900;10.774;2023-02-15T08:08:11;-0.90;99.90
39503;DHT22;26970;49.900;10.774;2023-02-15T08:11:18;-1.00;99.90
39503;DHT22;26970;49.900;10.774;2023-02-15T08:14:20;-0.80;99.90
39503;DHT22;26970;49.900;10.774;2023-02-15T08:16:49;-0.70;99.90
39503;DHT22;26970;49.900;10.774;2023-02-15T08:21:43;-0.50;99.90
39503;DHT22;26970;49.900;10.774;2023-02-15T08:24:10;-0.60;99.90
39503;DHT22;26970;49.900;10.774;2023-02-15T08:26:36;-0.60;99.90
39503;DHT22;26970;49.900;10.774;2023-02-15T08:29:05;-0.70;99.90
39503;DHT22;26970;49.900;10.774;2023-02-15T08:31:32;-0.60;99.90
39503;DHT22;26970;49.900;10.774;2023-02-15T08:33:58;-0.50;99.90
39503;DHT22;26970;49.900;10.774;2023-02-15T08:36:27;-0.50;99.90
39503;DHT22;26970;49.900;10.774;2023-02-15T08:38:54;-0.40;99.90
39503;DHT22;26970;49.900;10.774;2023-02-15T08:43:47;-0.40;99.90
39503;DHT22;26970;49.900;10.774;2023-02-15T08:46:14;-0.50;99.90
39503;DHT22;26970;49.900;10.774;2023-02-15T08:48:40;-0.60;99.90
39503;DHT22;26970;49.900;10.774;2023-02-15T08:51:14;-0.50;99.90
39503;DHT22;26970;49.900;10.774;2023-02-15T08:53:42;-0.50;99.90
39503;DHT22;26970;49.900;10.774;2023-02-15T08:56:09;-0.40;99.90
39503;DHT22;26970;49.900;10.774;2023-02-15T08:58:36;-0.50;99.90
39503;DHT22;26970;49.900;10.774;2023-02-15T09:01:12;-0.40;99.90
39503;DHT22;26970;49.900;10.774;2023-02-15T09:03:38;-0.50;99.90
39503;DHT22;26970;49.900;10.774;2023-02-15T09:06:04;-0.50;99.90
39503;DHT22;26970;49.900;10.774;2023-02-15T09:08:30;-0.50;99.90
39503;DHT22;26970;49.900;10.774;2023-02-15T09:11:12;-0.30;99.90
39503;DHT22;26970;49.900;10.774;2023-02-15T09:13:38;-0.30;99.90
39503;DHT22;26970;49.900;10.774;2023-02-15T09:16:06;-0.30;99.90
39503;DHT22;26970;49.900;10.774;2023-02-15T09:18:34;-0.20;99.90
39503;DHT22;26970;49.900;10.774;2023-02-15T09:21:15;-0.20;99.90
39503;DHT22;26970;49.900;10.774;2023-02-15T09:23:43;-0.30;99.90
39503;DHT22;26970;49.900;10.774;2023-02-15T09:26:11;-0.30;99.90
39503;DHT22;26970;49.900;10.774;2023-02-15T09:28:37;-0.40;99.90
39503;DHT22;26970;49.900;10.774;2023-02-15T09:31:10;-0.40;99.90
39503;DHT22;26970;49.900;10.774;2023-02-15T09:33:37;-0.20;99.90
39503;DHT22;26970;49.900;10.774;2023-02-15T09:36:20;-0.20;99.90
39503;DHT22;26970;49.900;10.774;2023-02-15T09:38:47;-0.20;99.90
39503;DHT22;26970;49.900;10.774;2023-02-15T09:47:14;-0.10;99.90
39503;DHT22;26970;49.900;10.774;2023-02-15T09:49:47;-0.20;99.90
39503;DHT22;26970;49.900;10.774;2023-02-15T10:04:21;-0.20;99.90
39503;DHT22;26970;49.900;10.774;2023-02-15T10:09:49;-0.20;99.90
39503;DHT22;26970;49.900;10.774;2023-02-15T10:12:27;-0.20;99.90
39503;DHT22;26970;49.900;10.774;2023-02-15T10:15:18;-0.30;99.90
39503;DHT22;26970;49.900;10.774;2023-02-15T10:20:40;-0.20;99.90
39503;DHT22;26970;49.900;10.774;2023-02-15T10:25:55;0.10;99.90
39503;DHT22;26970;49.900;10.774;2023-02-15T10:28:49;0.10;99.90
39503;DHT22;26970;49.900;10.774;2023-02-15T10:46:07;0.10;99.90
39503;DHT22;26970;49.900;10.774;2023-02-15T10:48:39;0.30;99.90
39503;DHT22;26970;49.900;10.774;2023-02-15T10:51:33;0.10;99.90
39503;DHT22;26970;49.900;10.774;2023-02-15T10:54:21;0.20;99.90
39503;DHT22;26970;49.900;10.774;2023-02-15T11:02:16;0.20;99.90
39503;DHT22;26970;49.900;10.774;2023-02-15T11:04:55;0.20;99.90
39503;DHT22;26970;49.900;10.774;2023-02-15T11:07:35;0.20;99.90
39503;DHT22;26970;49.900;10.774;2023-02-15T11:10:18;0.10;99.90
39503;DHT22;26970;49.900;10.774;2023-02-15T11:12:45;0.10;99.90
39503;DHT22;26970;49.900;10.774;2023-02-15T11:17:51;0.10;99.90
39503;DHT22;26970;49.900;10.774;2023-02-15T11:22:53;0.10;99.90
39503;DHT22;26970;49.900;10.774;2023-02-15T11:25:33;0.20;99.90
39503;DHT22;26970;49.900;10.774;2023-02-15T11:28:03;0.30;99.90
39503;DHT22;26970;49.900;10.774;2023-02-15T11:30:44;0.30;99.90
39503;DHT22;26970;49.900;10.774;2023-02-15T11:33:30;0.30;99.90
39503;DHT22;26970;49.900;10.774;2023-02-15T11:36:02;0.20;99.90
39503;DHT22;26970;49.900;10.774;2023-02-15T11:38:32;0.20;99.90
39503;DHT22;26970;49.900;10.774;2023-02-15T11:41:21;0.20;99.90
39503;DHT22;26970;49.900;10.774;2023-02-15T11:43:58;0.30;99.90
39503;DHT22;26970;49.900;10.774;2023-02-15T11:46:26;0.30;99.90
39503;DHT22;26970;49.900;10.774;2023-02-15T11:48:51;0.40;99.90
39503;DHT22;26970;49.900;10.774;2023-02-15T11:51:19;0.50;99.90
39503;DHT22;26970;49.900;10.774;2023-02-15T11:53:46;0.30;99.90
39503;DHT22;26970;49.900;10.774;2023-02-15T11:56:22;0.30;99.90
39503;DHT22;26970;49.900;10.774;2023-02-15T11:59:06;0.10;99.90
39503;DHT22;26970;49.900;10.774;2023-02-15T12:01:40;0.00;99.90
39503;DHT22;26970;49.900;10.774;2023-02-15T12:04:25;0.40;99.90
39503;DHT22;26970;49.900;10.774;2023-02-15T12:07:44;0.40;99.90
39503;DHT22;26970;49.900;10.774;2023-02-15T12:09:58;0.40;99.90
39503;DHT22;26970;49.900;10.774;2023-02-15T12:12:32;0.20;99.90
39503;DHT22;26970;49.900;10.774;2023-02-15T12:15:00;0.50;99.90
39503;DHT22;26970;49.900;10.774;2023-02-15T12:17:28;0.60;99.90
39503;DHT22;26970;49.900;10.774;2023-02-15T12:19:57;0.80;99.90
39503;DHT22;26970;49.900;10.774;2023-02-15T12:22:28;0.90;99.90
39503;DHT22;26970;49.900;10.774;2023-02-15T12:24:56;0.90;99.90
39503;DHT22;26970;49.900;10.774;2023-02-15T12:27:32;1.00;99.90
39503;DHT22;26970;49.900;10.774;2023-02-15T12:30:07;1.10;99.90
39503;DHT22;26970;49.900;10.774;2023-02-15T12:32:52;1.20;99.90
39503;DHT22;26970;49.900;10.774;2023-02-15T12:35:32;1.30;99.90
39503;DHT22;26970;49.900;10.774;2023-02-15T12:40:36;1.10;99.90
39503;DHT22;26970;49.900;10.774;2023-02-15T12:43:02;1.10;99.90
39503;DHT22;26970;49.900;10.774;2023-02-15T12:45:36;1.10;99.90
39503;DHT22;26970;49.900;10.774;2023-02-15T12:48:16;0.90;99.90
39503;DHT22;26970;49.900;10.774;2023-02-15T12:50:45;0.80;99.90
39503;DHT22;26970;49.900;10.774;2023-02-15T12:56:04;0.60;99.90
39503;DHT22;26970;49.900;10.774;2023-02-15T12:58:38;0.50;99.90
39503;DHT22;26970;49.900;10.774;2023-02-15T13:01:14;0.70;99.90
39503;DHT22;26970;49.900;10.774;2023-02-15T13:03:57;0.50;99.90
39503;DHT22;26970;49.900;10.774;2023-02-15T13:06:23;0.60;99.90
39503;DHT22;26970;49.900;10.774;2023-02-15T13:08:52;0.70;99.90
39503;DHT22;26970;49.900;10.774;2023-02-15T13:11:29;0.90;99.90
39503;DHT22;26970;49.900;10.774;2023-02-15T13:14:02;1.00;99.90
39503;DHT22;26970;49.900;10.774;2023-02-15T13:16:37;1.00;99.90
39503;DHT22;26970;49.900;10.774;2023-02-15T13:19:12;0.90;99.90
39503;DHT22;26970;49.900;10.774;2023-02-15T13:21:43;0.90;99.90
39503;DHT22;26970;49.900;10.774;2023-02-15T13:24:40;0.80;99.90
39503;DHT22;26970;49.900;10.774;2023-02-15T13:27:04;0.80;99.90
39503;DHT22;26970;49.900;10.774;2023-02-15T13:29:34;0.80;99.90
39503;DHT22;26970;49.900;10.774;2023-02-15T13:32:10;0.60;99.90
39503;DHT22;26970;49.900;10.774;2023-02-15T13:34:39;0.50;99.90
39503;DHT22;26970;49.900;10.774;2023-02-15T13:37:40;0.50;99.90
39503;DHT22;26970;49.900;10.774;2023-02-15T13:40:11;0.50;99.90
39503;DHT22;26970;49.900;10.774;2023-02-15T13:42:38;0.60;99.90
39503;DHT22;26970;49.900;10.774;2023-02-15T13:50:23;0.80;99.90
39503;DHT22;26970;49.900;10.774;2023-02-15T14:03:33;0.80;99.90
39503;DHT22;26970;49.900;10.774;2023-02-15T14:08:47;0.90;99.90
39503;DHT22;26970;49.900;10.774;2023-02-15T14:11:58;0.90;99.90
39503;DHT22;26970;49.900;10.774;2023-02-15T14:21:05;1.00;99.90
39503;DHT22;26970;49.900;10.774;2023-02-15T14:25:58;1.10;99.90
39503;DHT22;26970;49.900;10.774;2023-02-15T14:28:33;1.20;99.90
39503;DHT22;26970;49.900;10.774;2023-02-15T14:31:00;1.20;99.90
39503;DHT22;26970;49.900;10.774;2023-02-15T14:33:43;1.20;99.90
39503;DHT22;26970;49.900;10.774;2023-02-15T14:36:16;1.20;99.90
39503;DHT22;26970;49.900;10.774;2023-02-15T14:41:47;1.10;99.90
39503;DHT22;26970;49.900;10.774;2023-02-15T14:44:27;1.10;99.90
39503;DHT22;26970;49.900;10.774;2023-02-15T14:47:08;1.30;99.90
39503;DHT22;26970;49.900;10.774;2023-02-15T14:49:37;1.40;99.90
39503;DHT22;26970;49.900;10.774;2023-02-15T14:52:10;1.30;99.90
39503;DHT22;26970;49.900;10.774;2023-02-15T15:04:41;1.10;99.90
39503;DHT22;26970;49.900;10.774;2023-02-15T15:07:19;1.10;99.90
39503;DHT22;26970;49.900;10.774;2023-02-15T15:09:57;1.00;99.90
39503;DHT22;26970;49.900;10.774;2023-02-15T15:14:54;1.00;99.90
39503;DHT22;26970;49.900;10.774;2023-02-15T15:20:03;1.00;99.90
39503;DHT22;26970;49.900;10.774;2023-02-15T15:22:31;1.00;99.90
39503;DHT22;26970;49.900;10.774;2023-02-15T15:28:01;0.80;99.90
39503;DHT22;26970;49.900;10.774;2023-02-15T15:44:19;0.50;99.90
39503;DHT22;26970;49.900;10.774;2023-02-15T15:49:36;0.40;99.90
39503;DHT22;26970;49.900;10.774;2023-02-15T15:52:18;0.40;99.90
39503;DHT22;26970;49.900;10.774;2023-02-15T15:54:48;0.50;99.90
39503;DHT22;26970;49.900;10.774;2023-02-15T15:57:29;0.50;99.90
39503;DHT22;26970;49.900;10.774;2023-02-15T15:59:58;0.50;99.90
39503;DHT22;26970;49.900;10.774;2023-02-15T16:02:25;0.50;99.90
39503;DHT22;26970;49.900;10.774;2023-02-15T16:04:51;0.40;99.90
39503;DHT22;26970;49.900;10.774;2023-02-15T16:12:30;0.20;99.90
39503;DHT22;26970;49.900;10.774;2023-02-15T16:14:56;0.20;99.90
39503;DHT22;26970;49.900;10.774;2023-02-15T16:17:27;0.30;99.90
39503;DHT22;26970;49.900;10.774;2023-02-15T16:20:03;0.30;99.90
39503;DHT22;26970;49.900;10.774;2023-02-15T16:22:32;0.40;99.90
39503;DHT22;26970;49.900;10.774;2023-02-15T16:27:53;0.20;99.90
39503;DHT22;26970;49.900;10.774;2023-02-15T16:30:31;0.20;99.90
39503;DHT22;26970;49.900;10.774;2023-02-15T16:33:07;0.20;99.90
39503;DHT22;26970;49.900;10.774;2023-02-15T16:35:36;0.20;99.90
39503;DHT22;26970;49.900;10.774;2023-02-15T16:38:03;0.20;99.90
39503;DHT22;26970;49.900;10.774;2023-02-15T16:40:45;0.10;99.90
39503;DHT22;26970;49.900;10.774;2023-02-15T16:43:20;0.10;99.90
39503;DHT22;26970;49.900;10.774;2023-02-15T16:45:46;0.10;99.90
39503;DHT22;26970;49.900;10.774;2023-02-15T16:48:22;0.10;99.90
39503;DHT22;26970;49.900;10.774;2023-02-15T16:50:51;0.10;99.90
39503;DHT22;26970;49.900;10.774;2023-02-15T16:53:21;0.10;99.90
39503;DHT22;26970;49.900;10.774;2023-02-15T16:55:50;0.10;99.90
39503;DHT22;26970;49.900;10.774;2023-02-15T16:58:17;0.10;99.90
39503;DHT22;26970;49.900;10.774;2023-02-15T17:00:43;0.00;99.90
39503;DHT22;26970;49.900;10.774;2023-02-15T17:05:45;0.00;99.90
39503;DHT22;26970;49.900;10.774;2023-02-15T17:11:17;0.30;99.90
39503;DHT22;26970;49.900;10.774;2023-02-15T17:16:29;0.20;99.90
39503;DHT22;26970;49.900;10.774;2023-02-15T17:18:57;0.30;99.90
39503;DHT22;26970;49.900;10.774;2023-02-15T17:21:33;0.30;99.90
39503;DHT22;26970;49.900;10.774;2023-02-15T17:24:02;0.40;99.90
39503;DHT22;26970;49.900;10.774;2023-02-15T17:26:34;0.40;99.90
39503;DHT22;26970;49.900;10.774;2023-02-15T17:29:24;0.20;99.90
39503;DHT22;26970;49.900;10.774;2023-02-15T17:31:55;0.20;99.90
39503;DHT22;26970;49.900;10.774;2023-02-15T17:37:15;0.30;99.90
39503;DHT22;26970;49.900;10.774;2023-02-15T17:39:48;0.20;99.90
39503;DHT22;26970;49.900;10.774;2023-02-15T17:42:13;0.00;99.90
39503;DHT22;26970;49.900;10.774;2023-02-15T17:44:39;-0.10;99.90
39503;DHT22;26970;49.900;10.774;2023-02-15T17:47:04;-0.10;99.90
39503;DHT22;26970;49.900;10.774;2023-02-15T17:49:30;-0.10;99.90
39503;DHT22;26970;49.900;10.774;2023-02-15T17:52:02;-0.10;99.90
39503;DHT22;26970;49.900;10.774;2023-02-15T17:54:28;-0.20;99.90
39503;DHT22;26970;49.900;10.774;2023-02-15T17:57:13;-0.20;99.90
39503;DHT22;26970;49.900;10.774;2023-02-15T17:59:40;-0.30;99.90
39503;DHT22;26970;49.900;10.774;2023-02-15T18:02:24;-0.20;99.90
39503;DHT22;26970;49.900;10.774;2023-02-15T18:05:12;0.00;99.90
39503;DHT22;26970;49.900;10.774;2023-02-15T18:07:57;-0.10;99.90
39503;DHT22;26970;49.900;10.774;2023-02-15T18:10:41;-0.10;99.90
39503;DHT22;26970;49.900;10.774;2023-02-15T18:13:25;-0.20;99.90
39503;DHT22;26970;49.900;10.774;2023-02-15T18:15:51;-0.10;99.90
39503;DHT22;26970;49.900;10.774;2023-02-15T18:18:16;-0.10;99.90
39503;DHT22;26970;49.900;10.774;2023-02-15T18:20:42;-0.20;99.90
39503;DHT22;26970;49.900;10.774;2023-02-15T18:23:13;-0.10;99.90
39503;DHT22;26970;49.900;10.774;2023-02-15T18:25:39;-0.10;99.90
39503;DHT22;26970;49.900;10.774;2023-02-15T18:28:04;-0.20;99.90
39503;DHT22;26970;49.900;10.774;2023-02-15T18:30:31;-0.20;99.90
39503;DHT22;26970;49.900;10.774;2023-02-15T18:32:58;-0.20;99.90
39503;DHT22;26970;49.900;10.774;2023-02-15T18:35:30;-0.20;99.90
39503;DHT22;26970;49.900;10.774;2023-02-15T18:37:58;-0.40;99.90
39503;DHT22;26970;49.900;10.774;2023-02-15T18:40:26;0.00;99.90